Time;durP1;ratioP1;P1;durP2;ratioP2;P2;SDS_P1;SDS_P2;PMS_P1;PMS_P2;Temp;Humidity;BMP_temperature;BMP_pressure;BME280_temperature;BME280_humidity;BME280_pressure;Samples;Min_cycle;Max_cycle;Signal;HPM_P1;HPM_P2
2023/06/12 00:00:21;;;;;;;28.25;18.40;;;;;;;;;;5049757;28;20049;-78
2023/06/12 00:02:47;;;;;;;31.83;18.88;;;;;;;;;;5034337;28;20340;-79
2023/06/12 00:05:20;;;;;;;29.08;18.70;;;;;;;;;;5035306;28;20036;-82
2023/06/12 00:07:47;;;;;;;27.83;18.92;;;;;;;;;;5035508;28;20055;-80
2023/06/12 00:10:12;;;;;;;28.83;18.05;;;;;;;;;;5017396;28;20033;-80
2023/06/12 00:12:38;;;;;;;27.58;18.17;;;;;;;;;;5050458;28;20036;-81
2023/06/12 00:15:04;;;;;;;30.88;18.25;;;;;;;;;;5050744;28;20452;-80
2023/06/12 00:17:33;;;;;;;28.27;17.67;;;;;;;;;;5034042;28;20087;-81
2023/06/12 00:19:59;;;;;;;28.42;17.17;;;;;;;;;;5017919;28;20021;-81
2023/06/12 00:22:24;;;;;;;26.08;15.85;;;;;;;;;;5049652;28;20030;-81
2023/06/12 00:24:49;;;;;;;26.38;16.17;;;;;;;;;;5033526;28;20368;-81
2023/06/12 00:27:15;;;;;;;30.55;15.70;;;;;;;;;;5017043;28;20026;-80
2023/06/12 00:29:40;;;;;;;29.13;16.33;;;;;;;;;;5034764;28;20025;-81
2023/06/12 00:32:06;;;;;;;25.45;15.98;;;;;;;;;;5033783;28;20100;-81
2023/06/12 00:34:31;;;;;;;25.02;16.25;;;;;;;;;;5034844;28;20469;-80
2023/06/12 00:36:57;;;;;;;29.48;15.82;;;;;;;;;;5034619;28;20026;-80
2023/06/12 00:39:22;;;;;;;25.88;14.82;;;;;;;;;;5034287;28;20371;-81
2023/06/12 00:41:48;;;;;;;21.88;15.45;;;;;;;;;;5016861;28;20021;-80
2023/06/12 00:44:13;;;;;;;31.13;15.73;;;;;;;;;;5033043;28;20443;-81
2023/06/12 00:46:38;;;;;;;25.30;14.75;;;;;;;;;;5049802;28;20131;-82
2023/06/12 00:49:04;;;;;;;29.92;15.85;;;;;;;;;;5033237;28;20441;-81
2023/06/12 00:51:32;;;;;;;28.85;15.15;;;;;;;;;;5049706;28;20474;-80
2023/06/12 00:53:58;;;;;;;22.73;14.48;;;;;;;;;;5017090;28;20025;-82
2023/06/12 00:56:25;;;;;;;29.83;15.82;;;;;;;;;;5049615;28;20030;-81
2023/06/12 00:58:52;;;;;;;24.02;15.02;;;;;;;;;;5034720;28;20025;-80
2023/06/12 01:01:24;;;;;;;33.70;15.48;;;;;;;;;;5033053;28;20037;-81
2023/06/12 01:03:51;;;;;;;22.08;14.68;;;;;;;;;;5034381;28;20029;-81
2023/06/12 01:06:17;;;;;;;27.52;14.68;;;;;;;;;;5016845;28;20040;-80
2023/06/12 01:08:45;;;;;;;21.23;14.32;;;;;;;;;;5032660;28;20025;-80
2023/06/12 01:11:12;;;;;;;27.45;14.80;;;;;;;;;;5033966;28;20443;-80
2023/06/12 01:13:37;;;;;;;26.63;15.02;;;;;;;;;;5049276;28;20057;-82
2023/06/12 01:16:03;;;;;;;28.90;16.48;;;;;;;;;;5049416;28;20053;-80
2023/06/12 01:18:29;;;;;;;29.90;17.92;;;;;;;;;;5032979;28;20025;-80
2023/06/12 01:20:58;;;;;;;29.05;17.15;;;;;;;;;;5033928;28;20428;-81
2023/06/12 01:23:39;;;;;;;26.17;16.27;;;;;;;;;;5016806;28;20469;-80
2023/06/12 01:26:36;;;;;;;32.75;17.15;;;;;;;;;;5034065;28;20025;-81
2023/06/12 01:29:22;;;;;;;32.33;16.60;;;;;;;;;;5032663;28;20083;-80
2023/06/12 01:32:05;;;;;;;26.30;16.08;;;;;;;;;;5033517;28;20056;-80
2023/06/12 01:34:50;;;;;;;27.85;16.02;;;;;;;;;;5033967;28;20045;-80
2023/06/12 01:37:23;;;;;;;28.85;15.23;;;;;;;;;;5033717;28;20132;-81
2023/06/12 01:39:58;;;;;;;32.90;15.70;;;;;;;;;;5048235;28;20104;-80
2023/06/12 01:42:26;;;;;;;24.52;14.90;;;;;;;;;;5048912;28;20091;-81
2023/06/12 01:44:51;;;;;;;24.02;13.90;;;;;;;;;;5016335;28;20021;-80
2023/06/12 01:47:16;;;;;;;29.80;15.90;;;;;;;;;;5049559;28;20439;-81
2023/06/12 01:49:42;;;;;;;23.23;15.05;;;;;;;;;;5033701;28;20461;-81
2023/06/12 01:52:07;;;;;;;25.65;15.60;;;;;;;;;;5049176;28;20507;-80
2023/06/12 01:54:33;;;;;;;29.23;16.13;;;;;;;;;;5033864;28;20117;-80
2023/06/12 01:56:59;;;;;;;26.13;15.63;;;;;;;;;;5036699;28;20508;-81
2023/06/12 01:59:24;;;;;;;27.45;15.52;;;;;;;;;;5036490;28;20057;-81
2023/06/12 02:01:52;;;;;;;28.23;15.73;;;;;;;;;;5037981;28;20104;-81
2023/06/12 02:04:19;;;;;;;27.83;15.20;;;;;;;;;;5053053;28;20391;-81
2023/06/12 02:06:45;;;;;;;23.05;15.38;;;;;;;;;;5052737;28;20087;-81
2023/06/12 02:09:10;;;;;;;31.83;15.50;;;;;;;;;;5019805;28;20029;-80
2023/06/12 02:11:36;;;;;;;31.58;15.07;;;;;;;;;;5036411;28;20037;-80
2023/06/12 02:14:01;;;;;;;20.35;14.68;;;;;;;;;;5019670;28;20036;-81
2023/06/12 02:16:27;;;;;;;24.90;15.48;;;;;;;;;;5037457;28;20119;-80
2023/06/12 02:18:53;;;;;;;26.40;15.93;;;;;;;;;;5037479;28;20033;-80
2023/06/12 02:21:18;;;;;;;24.48;15.50;;;;;;;;;;5036874;28;20041;-80
2023/06/12 02:23:43;;;;;;;25.33;15.93;;;;;;;;;;5019458;28;20080;-81
2023/06/12 02:26:09;;;;;;;25.38;15.70;;;;;;;;;;5019453;28;20057;-80
2023/06/12 02:28:34;;;;;;;25.33;15.30;;;;;;;;;;5037016;28;20043;-80
2023/06/12 02:31:00;;;;;;;27.63;15.40;;;;;;;;;;5052670;28;20036;-81
2023/06/12 02:33:27;;;;;;;23.88;15.73;;;;;;;;;;5035753;28;20065;-80
2023/06/12 02:35:53;;;;;;;28.65;16.20;;;;;;;;;;5019238;28;20076;-80
2023/06/12 02:38:18;;;;;;;26.98;15.57;;;;;;;;;;5052271;28;20030;-80
2023/06/12 02:40:43;;;;;;;24.58;15.45;;;;;;;;;;5052285;28;20045;-80
2023/06/12 02:43:09;;;;;;;27.35;15.77;;;;;;;;;;5019110;28;20030;-80
2023/06/12 02:45:35;;;;;;;33.97;16.65;;;;;;;;;;5036726;28;20091;-80
2023/06/12 02:48:00;;;;;;;23.55;15.90;;;;;;;;;;5036515;28;20046;-80
2023/06/12 02:50:26;;;;;;;25.40;15.45;;;;;;;;;;5036897;28;20037;-81
2023/06/12 02:52:51;;;;;;;28.40;15.40;;;;;;;;;;5052170;28;20036;-81
2023/06/12 02:55:18;;;;;;;30.40;16.23;;;;;;;;;;5018880;28;20021;-81
2023/06/12 02:57:44;;;;;;;26.02;16.98;;;;;;;;;;5052259;28;20036;-81
2023/06/12 03:00:10;;;;;;;31.88;16.92;;;;;;;;;;5036361;28;20029;-81
2023/06/12 03:02:36;;;;;;;35.30;17.15;;;;;;;;;;5051836;28;20064;-80
2023/06/12 03:05:04;;;;;;;33.03;18.00;;;;;;;;;;5036097;28;20021;-81
2023/06/12 03:07:29;;;;;;;26.95;17.00;;;;;;;;;;5036123;28;20033;-80
2023/06/12 03:09:54;;;;;;;27.05;17.25;;;;;;;;;;5036228;28;20382;-81
2023/06/12 03:12:20;;;;;;;28.10;16.95;;;;;;;;;;5036291;28;20029;-80
2023/06/12 03:14:46;;;;;;;31.83;16.83;;;;;;;;;;5002268;28;20443;-80
2023/06/12 03:17:11;;;;;;;28.30;17.58;;;;;;;;;;5018602;28;20427;-81
2023/06/12 03:19:37;;;;;;;27.65;17.95;;;;;;;;;;5034805;28;20037;-81
2023/06/12 03:22:03;;;;;;;28.75;18.42;;;;;;;;;;5035074;28;20374;-82
2023/06/12 03:24:29;;;;;;;34.25;17.85;;;;;;;;;;5051344;28;20030;-79
2023/06/12 03:26:55;;;;;;;31.40;17.25;;;;;;;;;;5034802;28;20056;-82
2023/06/12 03:29:20;;;;;;;31.73;17.77;;;;;;;;;;5051511;28;20431;-81
2023/06/12 03:31:45;;;;;;;35.92;17.95;;;;;;;;;;5035582;28;20091;-81
2023/06/12 03:34:11;;;;;;;36.30;18.38;;;;;;;;;;5051176;28;20036;-82
2023/06/12 03:36:37;;;;;;;31.30;18.60;;;;;;;;;;5018420;28;20036;-81
2023/06/12 03:39:03;;;;;;;42.85;19.60;;;;;;;;;;5034911;28;20068;-82
2023/06/12 03:41:29;;;;;;;36.83;18.45;;;;;;;;;;5051251;28;20133;-81
2023/06/12 03:43:55;;;;;;;34.30;17.90;;;;;;;;;;5036099;28;20359;-81
2023/06/12 03:46:21;;;;;;;32.65;17.98;;;;;;;;;;5035393;28;20029;-81
2023/06/12 03:48:46;;;;;;;40.38;17.83;;;;;;;;;;5035375;28;20490;-81
2023/06/12 03:51:13;;;;;;;29.75;17.27;;;;;;;;;;5034429;28;20388;-81
2023/06/12 03:53:39;;;;;;;32.53;18.75;;;;;;;;;;5050777;28;20025;-81
2023/06/12 03:56:05;;;;;;;31.27;18.20;;;;;;;;;;5050697;28;20029;-81
2023/06/12 03:58:30;;;;;;;31.73;17.98;;;;;;;;;;5050699;28;20371;-82
2023/06/12 04:00:56;;;;;;;38.65;17.55;;;;;;;;;;5050328;28;20029;-81
2023/06/12 04:03:24;;;;;;;35.92;18.13;;;;;;;;;;5034101;28;20094;-82
2023/06/12 04:05:50;;;;;;;31.00;17.52;;;;;;;;;;5050325;28;20463;-81
2023/06/12 04:08:15;;;;;;;34.78;17.33;;;;;;;;;;5034071;28;20029;-82
2023/06/12 04:10:41;;;;;;;40.13;18.30;;;;;;;;;;5050771;28;20055;-81
2023/06/12 04:13:07;;;;;;;36.35;17.92;;;;;;;;;;5034084;28;20187;-81
2023/06/12 04:15:32;;;;;;;34.63;16.98;;;;;;;;;;5017135;28;20128;-81
2023/06/12 04:17:58;;;;;;;37.75;18.63;;;;;;;;;;5034733;28;20028;-80
2023/06/12 04:20:29;;;;;;;43.92;19.58;;;;;;;;;;5035057;28;20036;-81
2023/06/12 04:22:56;;;;;;;38.53;19.73;;;;;;;;;;5032389;28;20025;-80
2023/06/12 04:25:26;;;;;;;37.67;18.83;;;;;;;;;;5033925;28;20356;-80
2023/06/12 04:27:52;;;;;;;36.53;19.52;;;;;;;;;;5049604;28;20034;-81
2023/06/12 04:30:21;;;;;;;36.22;19.58;;;;;;;;;;5049917;28;20030;-80
2023/06/12 04:32:47;;;;;;;41.33;20.13;;;;;;;;;;5034843;28;20028;-86
2023/06/12 04:35:16;;;;;;;40.03;19.48;;;;;;;;;;5034817;28;20022;-85
2023/06/12 04:37:42;;;;;;;33.90;19.83;;;;;;;;;;5033200;28;20068;-83
2023/06/12 04:40:08;;;;;;;37.20;20.38;;;;;;;;;;5066071;28;20493;-83
2023/06/12 04:42:34;;;;;;;35.42;20.17;;;;;;;;;;5069437;28;21313;-83
2023/06/12 04:45:00;;;;;;;37.50;20.05;;;;;;;;;;5051971;28;20135;-82
2023/06/12 04:47:26;;;;;;;39.47;20.90;;;;;;;;;;5069240;28;20036;-83
2023/06/12 04:49:57;;;;;;;40.50;21.48;;;;;;;;;;5052226;28;20025;-82
2023/06/12 04:52:23;;;;;;;37.10;20.95;;;;;;;;;;5044904;28;20083;-81
2023/06/12 04:54:49;;;;;;;35.65;21.38;;;;;;;;;;5020805;28;20026;-82
2023/06/12 04:57:18;;;;;;;39.03;21.85;;;;;;;;;;5060572;28;20128;-83
2023/06/12 04:59:45;;;;;;;35.88;20.98;;;;;;;;;;5041251;28;20036;-81
2023/06/12 05:02:11;;;;;;;34.72;21.23;;;;;;;;;;4992477;28;20235;-85
2023/06/12 05:04:47;;;;;;;44.15;23.45;;;;;;;;;;5001344;28;20120;-83
2023/06/12 05:07:21;;;;;;;37.20;22.00;;;;;;;;;;5035790;28;20022;-81
2023/06/12 05:09:46;;;;;;;41.83;22.98;;;;;;;;;;5032511;28;20064;-82
2023/06/12 05:12:12;;;;;;;40.95;22.75;;;;;;;;;;5046647;28;20546;-80
2023/06/12 05:14:42;;;;;;;40.72;22.48;;;;;;;;;;5049021;28;20055;-81
2023/06/12 05:17:08;;;;;;;42.45;23.17;;;;;;;;;;5029299;28;20028;-83
2023/06/12 05:19:35;;;;;;;35.95;22.17;;;;;;;;;;5037497;28;20124;-83
2023/06/12 05:22:04;;;;;;;39.33;22.27;;;;;;;;;;5022282;28;20025;-83
2023/06/12 05:24:30;;;;;;;34.50;21.17;;;;;;;;;;5040550;28;20037;-83
2023/06/12 05:26:55;;;;;;;32.50;20.83;;;;;;;;;;5041057;28;20039;-82
2023/06/12 05:29:27;;;;;;;35.33;20.10;;;;;;;;;;5062049;28;20029;-84
2023/06/12 05:31:53;;;;;;;37.97;21.02;;;;;;;;;;5046417;28;20151;-84
2023/06/12 05:34:25;;;;;;;36.25;21.08;;;;;;;;;;5063575;28;20638;-84
2023/06/12 05:36:50;;;;;;;37.42;21.67;;;;;;;;;;5064421;28;20029;-83
2023/06/12 05:39:16;;;;;;;37.05;21.00;;;;;;;;;;5052009;28;20361;-83
2023/06/12 05:41:44;;;;;;;38.33;22.02;;;;;;;;;;5034005;28;20134;-84
2023/06/12 05:44:10;;;;;;;38.45;22.05;;;;;;;;;;5016217;28;20084;-85
2023/06/12 05:46:35;;;;;;;35.90;22.08;;;;;;;;;;5036754;28;20112;-84
2023/06/12 05:49:01;;;;;;;38.88;22.13;;;;;;;;;;5034858;28;20037;-85
2023/06/12 05:52:22;;;;;;;36.55;22.17;;;;;;;;;;5042801;28;20060;-84
2023/06/12 05:54:48;;;;;;;40.33;23.55;;;;;;;;;;5032545;28;20021;-84
2023/06/12 05:57:20;;;;;;;40.83;22.95;;;;;;;;;;5038480;28;20035;-83
2023/06/12 05:59:47;;;;;;;37.90;21.73;;;;;;;;;;5033946;28;20375;-83
2023/06/12 06:02:16;;;;;;;41.45;22.92;;;;;;;;;;5024151;28;20060;-85
2023/06/12 06:04:53;;;;;;;37.90;22.75;;;;;;;;;;5018659;28;20029;-84
2023/06/12 06:07:19;;;;;;;44.05;22.17;;;;;;;;;;5026579;28;20068;-84
2023/06/12 06:09:45;;;;;;;37.17;21.13;;;;;;;;;;5032419;28;20037;-83
2023/06/12 06:12:13;;;;;;;38.80;21.08;;;;;;;;;;5010872;28;20406;-84
2023/06/12 06:14:48;;;;;;;34.30;20.52;;;;;;;;;;5034460;28;20025;-85
2023/06/12 06:17:14;;;;;;;39.58;20.33;;;;;;;;;;5033715;28;20025;-84
2023/06/12 06:19:42;;;;;;;34.50;20.27;;;;;;;;;;5016135;28;20076;-83
2023/06/12 06:22:11;;;;;;;31.90;19.95;;;;;;;;;;5029995;28;20036;-87
2023/06/12 06:24:36;;;;;;;29.05;19.25;;;;;;;;;;5027893;28;20026;-87
2023/06/12 06:27:07;;;;;;;39.67;19.52;;;;;;;;;;5035265;28;20364;-87
2023/06/12 06:29:33;;;;;;;24.92;17.92;;;;;;;;;;5021951;28;20344;-84
2023/06/12 06:35:08;;;;;;;27.95;17.60;;;;;;;;;;5068030;22;20168;-84
2023/06/12 06:37:35;;;;;;;32.45;18.40;;;;;;;;;;5044658;28;20473;-86
2023/06/12 06:40:10;;;;;;;29.77;17.90;;;;;;;;;;5026286;28;20037;-86
2023/06/12 06:42:36;;;;;;;30.98;18.13;;;;;;;;;;5023196;28;20033;-88
2023/06/12 06:45:01;;;;;;;30.15;18.85;;;;;;;;;;5024985;28;20361;-88
2023/06/12 06:47:27;;;;;;;32.47;18.70;;;;;;;;;;5032079;28;20516;-86
2023/06/12 06:49:53;;;;;;;30.85;17.80;;;;;;;;;;5034797;28;20037;-87
2023/06/12 06:52:50;;;;;;;34.15;19.40;;;;;;;;;;5040264;28;20021;-85
2023/06/12 06:55:16;;;;;;;31.58;18.77;;;;;;;;;;5015762;28;20044;-86
2023/06/12 06:57:42;;;;;;;31.63;19.02;;;;;;;;;;5042040;28;20124;-85
2023/06/12 07:00:09;;;;;;;32.67;20.00;;;;;;;;;;5024294;28;20045;-87
2023/06/12 07:02:35;;;;;;;33.85;19.75;;;;;;;;;;5056437;28;20040;-86
2023/06/12 07:05:00;;;;;;;34.47;20.27;;;;;;;;;;5044613;28;20024;-88
2023/06/12 07:07:28;;;;;;;32.65;20.55;;;;;;;;;;5014499;28;20024;-85
2023/06/12 07:09:54;;;;;;;39.67;20.52;;;;;;;;;;5034995;28;20044;-85
2023/06/12 07:12:20;;;;;;;35.95;20.75;;;;;;;;;;5052799;28;20023;-85
2023/06/12 07:14:45;;;;;;;34.72;20.48;;;;;;;;;;5025858;28;20044;-85
2023/06/12 07:17:13;;;;;;;36.75;21.48;;;;;;;;;;5060284;28;20031;-86
2023/06/12 07:19:39;;;;;;;38.25;21.00;;;;;;;;;;5051372;28;20028;-83
2023/06/12 07:22:04;;;;;;;36.97;22.15;;;;;;;;;;5044014;28;20024;-84
2023/06/12 07:24:30;;;;;;;39.17;22.35;;;;;;;;;;5024515;28;20113;-87
2023/06/12 07:26:55;;;;;;;43.35;22.58;;;;;;;;;;5011035;28;20041;-84
2023/06/12 07:32:43;;;;;;;38.13;23.67;;;;;;;;;;5059715;28;20432;-85
2023/06/12 07:35:09;;;;;;;37.78;22.90;;;;;;;;;;5051177;28;20029;-85
2023/06/12 07:37:35;;;;;;;36.58;22.98;;;;;;;;;;5060892;28;20029;-83
2023/06/12 07:40:07;;;;;;;44.80;24.88;;;;;;;;;;5057801;28;20409;-86
2023/06/12 07:42:33;;;;;;;41.33;26.00;;;;;;;;;;5020244;28;20029;-85
2023/06/12 07:44:58;;;;;;;39.97;24.73;;;;;;;;;;5057079;28;20367;-86
2023/06/12 07:47:24;;;;;;;42.63;26.70;;;;;;;;;;5037763;28;20017;-89
2023/06/12 07:49:50;;;;;;;42.95;25.70;;;;;;;;;;5037057;28;20036;-89
2023/06/12 07:52:16;;;;;;;43.67;27.05;;;;;;;;;;5026096;28;20358;-87
2023/06/12 07:54:42;;;;;;;42.05;25.83;;;;;;;;;;5017990;28;20083;-85
2023/06/12 07:57:07;;;;;;;45.75;28.45;;;;;;;;;;5063235;28;20033;-87
2023/06/12 07:59:33;;;;;;;45.25;28.20;;;;;;;;;;5034454;28;20028;-85
2023/06/12 08:02:01;;;;;;;46.08;28.35;;;;;;;;;;5036086;28;20052;-83
2023/06/12 08:04:29;;;;;;;51.65;28.42;;;;;;;;;;5002627;28;20106;-87
2023/06/12 08:06:55;;;;;;;45.50;28.75;;;;;;;;;;5020987;23;20056;-84
2023/06/12 08:09:20;;;;;;;49.13;28.73;;;;;;;;;;5066108;28;20028;-83
2023/06/12 08:11:46;;;;;;;43.88;27.23;;;;;;;;;;5035050;28;20025;-86
2023/06/12 08:14:11;;;;;;;46.60;28.13;;;;;;;;;;5020234;28;20029;-84
2023/06/12 08:16:37;;;;;;;44.78;26.88;;;;;;;;;;5052152;28;20136;-85
2023/06/12 08:19:02;;;;;;;47.42;27.40;;;;;;;;;;5055365;28;20033;-85
2023/06/12 08:21:28;;;;;;;41.80;26.48;;;;;;;;;;5041383;28;20029;-84
2023/06/12 08:23:53;;;;;;;44.40;27.85;;;;;;;;;;5051675;28;20021;-86
2023/06/12 08:26:19;;;;;;;46.38;26.50;;;;;;;;;;5061522;28;20021;-84
2023/06/12 08:28:49;;;;;;;45.00;26.23;;;;;;;;;;5029879;28;20029;-85
2023/06/12 08:31:15;;;;;;;42.10;24.75;;;;;;;;;;5066886;28;20028;-83
2023/06/12 08:33:40;;;;;;;42.05;23.08;;;;;;;;;;5059586;28;20402;-84
2023/06/12 08:36:06;;;;;;;36.80;23.73;;;;;;;;;;5025490;28;20449;-85
2023/06/12 08:38:31;;;;;;;38.97;23.85;;;;;;;;;;5086242;28;20494;-86
2023/06/12 08:40:58;;;;;;;39.03;24.10;;;;;;;;;;5061408;28;20055;-86
2023/06/12 08:43:24;;;;;;;43.38;24.67;;;;;;;;;;5051442;28;20450;-84
2023/06/12 08:46:09;;;;;;;38.58;23.50;;;;;;;;;;5055280;28;20067;-86
2023/06/12 08:48:34;;;;;;;42.30;24.55;;;;;;;;;;5036037;28;20052;-83
2023/06/12 08:51:02;;;;;;;40.25;24.85;;;;;;;;;;5035446;28;20606;-85
2023/06/12 08:53:33;;;;;;;35.22;22.85;;;;;;;;;;5019541;28;20021;-85
2023/06/12 08:55:59;;;;;;;35.38;22.88;;;;;;;;;;5037860;28;20066;-85
2023/06/12 08:58:42;;;;;;;37.97;22.65;;;;;;;;;;5054578;28;20450;-85
2023/06/12 09:01:36;;;;;;;34.88;22.95;;;;;;;;;;5036821;28;20033;-86
2023/06/12 09:04:09;;;;;;;34.97;22.13;;;;;;;;;;5018962;28;20041;-86
2023/06/12 09:06:36;;;;;;;38.83;23.38;;;;;;;;;;5034118;28;20112;-83
2023/06/12 09:09:03;;;;;;;37.63;23.55;;;;;;;;;;5004756;28;20039;-83
2023/06/12 09:11:29;;;;;;;38.00;23.27;;;;;;;;;;5043947;28;20029;-86
2023/06/12 09:14:00;;;;;;;40.00;22.42;;;;;;;;;;5039702;28;20025;-84
2023/06/12 09:16:26;;;;;;;45.50;23.55;;;;;;;;;;5023807;28;20037;-86
2023/06/12 09:18:52;;;;;;;34.92;21.65;;;;;;;;;;5021329;28;20017;-85
2023/06/12 09:21:18;;;;;;;34.83;22.10;;;;;;;;;;5054075;28;20062;-86
2023/06/12 09:23:45;;;;;;;36.95;22.13;;;;;;;;;;5034596;28;20037;-84
2023/06/12 09:26:18;;;;;;;34.63;22.00;;;;;;;;;;5063709;28;20035;-86
2023/06/12 09:28:46;;;;;;;46.53;22.45;;;;;;;;;;5046762;28;20028;-87
2023/06/12 09:31:13;;;;;;;48.38;22.60;;;;;;;;;;5034489;28;20032;-85
2023/06/12 09:33:39;;;;;;;35.38;21.73;;;;;;;;;;5047066;28;20079;-85
2023/06/12 09:36:05;;;;;;;39.15;22.02;;;;;;;;;;5063510;28;20029;-84
2023/06/12 09:38:32;;;;;;;32.45;21.58;;;;;;;;;;5054643;28;20111;-85
2023/06/12 09:40:58;;;;;;;38.25;22.02;;;;;;;;;;5037073;28;20059;-85
2023/06/12 09:43:27;;;;;;;41.28;22.92;;;;;;;;;;5037318;28;20375;-84
2023/06/12 09:45:53;;;;;;;36.07;22.73;;;;;;;;;;5054036;28;20037;-84
2023/06/12 09:48:18;;;;;;;38.90;24.10;;;;;;;;;;5049542;28;20439;-84
2023/06/12 09:50:45;;;;;;;40.58;23.52;;;;;;;;;;5036639;28;20254;-85
2023/06/12 09:53:20;;;;;;;36.33;23.52;;;;;;;;;;5062953;28;20018;-84
2023/06/12 09:55:46;;;;;;;38.83;23.50;;;;;;;;;;5018209;28;20033;-83
2023/06/12 09:58:15;;;;;;;37.90;23.63;;;;;;;;;;5047367;28;20082;-84
2023/06/12 10:00:41;;;;;;;41.80;23.60;;;;;;;;;;5031591;28;20036;-83
2023/06/12 10:03:09;;;;;;;37.25;22.92;;;;;;;;;;5018941;28;20680;-84
2023/06/12 10:05:40;;;;;;;34.53;21.13;;;;;;;;;;5046269;28;20316;-82
2023/06/12 10:08:06;;;;;;;37.05;22.63;;;;;;;;;;5028180;28;20056;-84
2023/06/12 10:10:35;;;;;;;41.00;22.80;;;;;;;;;;5027421;28;20037;-85
2023/06/12 10:13:01;;;;;;;33.47;21.50;;;;;;;;;;5027338;28;20025;-84
2023/06/12 10:15:28;;;;;;;32.67;19.88;;;;;;;;;;5044937;28;20610;-84
2023/06/12 10:17:54;;;;;;;32.42;19.13;;;;;;;;;;5048350;28;20064;-84
2023/06/12 10:20:20;;;;;;;31.40;18.63;;;;;;;;;;5062814;28;20475;-83
2023/06/12 10:22:46;;;;;;;36.17;19.38;;;;;;;;;;5051706;28;20102;-83
2023/06/12 10:25:11;;;;;;;35.03;19.73;;;;;;;;;;5046155;28;20435;-81
2023/06/12 10:27:37;;;;;;;30.13;18.55;;;;;;;;;;5063943;28;20037;-82
2023/06/12 10:30:04;;;;;;;28.95;19.23;;;;;;;;;;5015604;28;20032;-84
2023/06/12 10:32:39;;;;;;;36.85;18.13;;;;;;;;;;5053170;28;20045;-82
2023/06/12 10:35:16;;;;;;;30.45;18.13;;;;;;;;;;4987537;28;20119;-81
2023/06/12 10:37:44;;;;;;;28.70;17.25;;;;;;;;;;5046060;28;20098;-82
2023/06/12 10:40:18;;;;;;;29.08;17.23;;;;;;;;;;5031304;28;20037;-82
2023/06/12 10:43:00;;;;;;;27.60;17.50;;;;;;;;;;5033368;28;20029;-82
2023/06/12 10:45:29;;;;;;;31.08;17.38;;;;;;;;;;5040083;28;20085;-82
2023/06/12 10:47:59;;;;;;;;;;;;;;;;;;5000671;28;20028;-81
2023/06/12 10:50:25;;;;;;;28.40;17.48;;;;;;;;;;5051692;28;19916;-83
2023/06/12 10:52:55;;;;;;;30.30;17.15;;;;;;;;;;5037024;28;20031;-83
2023/06/12 10:55:36;;;;;;;26.40;16.73;;;;;;;;;;5035456;28;20489;-83
2023/06/12 10:58:04;;;;;;;33.88;17.63;;;;;;;;;;5035347;28;20465;-82
2023/06/12 11:00:31;;;;;;;35.80;19.37;;;;;;;;;;5032423;28;20029;-83
2023/06/12 11:03:05;;;;;;;32.20;18.58;;;;;;;;;;5017639;28;20608;-81
2023/06/12 11:05:31;;;;;;;36.70;19.17;;;;;;;;;;5048366;28;20047;-82
2023/06/12 11:08:00;;;;;;;34.85;18.10;;;;;;;;;;5046967;28;20128;-82
2023/06/12 11:10:26;;;;;;;28.98;16.75;;;;;;;;;;5063461;28;20056;-81
2023/06/12 11:12:52;;;;;;;24.85;16.73;;;;;;;;;;5051561;28;20052;-84
2023/06/12 11:15:18;;;;;;;24.77;16.83;;;;;;;;;;5030581;28;20124;-83
2023/06/12 11:17:43;;;;;;;28.45;16.38;;;;;;;;;;5033704;28;20055;-83
2023/06/12 11:20:09;;;;;;;27.55;16.60;;;;;;;;;;5036400;28;20385;-84
2023/06/12 11:22:35;;;;;;;28.15;16.85;;;;;;;;;;5025622;28;20044;-84
2023/06/12 11:25:06;;;;;;;26.42;16.70;;;;;;;;;;5049781;28;20033;-82
2023/06/12 11:27:31;;;;;;;25.67;16.05;;;;;;;;;;5044820;28;20033;-82
2023/06/12 11:30:09;;;;;;;25.65;16.73;;;;;;;;;;5048862;28;20478;-83
2023/06/12 11:32:35;;;;;;;29.33;17.55;;;;;;;;;;5056971;28;20111;-83
2023/06/12 11:35:02;;;;;;;30.95;17.77;;;;;;;;;;5033117;28;20290;-84
2023/06/12 11:37:28;;;;;;;30.05;17.70;;;;;;;;;;5051000;28;20033;-84
2023/06/12 11:40:12;;;;;;;29.95;17.20;;;;;;;;;;5033713;28;20466;-85
2023/06/12 11:42:39;;;;;;;33.60;17.23;;;;;;;;;;5034369;28;20474;-85
2023/06/12 11:45:17;;;;;;;33.20;21.58;;;;;;;;;;5034207;28;20056;-84
2023/06/12 11:47:44;;;;;;;25.50;16.58;;;;;;;;;;5052637;28;20021;-83
2023/06/12 11:50:15;;;;;;;25.17;16.17;;;;;;;;;;5034270;28;20037;-83
2023/06/12 11:52:41;;;;;;;27.33;15.35;;;;;;;;;;5019300;28;20040;-86
2023/06/12 11:55:12;;;;;;;24.20;15.55;;;;;;;;;;5053505;28;20466;-84
2023/06/12 11:57:37;;;;;;;24.98;15.43;;;;;;;;;;5052798;28;20024;-84
2023/06/12 12:00:13;;;;;;;24.08;15.77;;;;;;;;;;5051919;28;20025;-84
2023/06/12 12:02:49;;;;;;;24.83;15.40;;;;;;;;;;5034936;28;20059;-84
2023/06/12 12:05:17;;;;;;;24.58;15.90;;;;;;;;;;5019141;28;20390;-84
2023/06/12 12:07:45;;;;;;;25.65;16.05;;;;;;;;;;5002730;28;20051;-84
2023/06/12 12:10:11;;;;;;;30.92;15.80;;;;;;;;;;5036009;28;20029;-85
2023/06/12 12:12:59;;;;;;;29.30;15.90;;;;;;;;;;5053860;28;20024;-84
2023/06/12 12:15:25;;;;;;;22.58;14.80;;;;;;;;;;5022716;28;20446;-84
2023/06/12 12:17:51;;;;;;;20.30;14.93;;;;;;;;;;5037230;28;20086;-84
2023/06/12 12:20:28;;;;;;;40.58;23.75;;;;;;;;;;5053674;28;20055;-84
2023/06/12 12:22:55;;;;;;;24.13;15.50;;;;;;;;;;5054929;28;20031;-81
2023/06/12 12:25:31;;;;;;;21.38;14.23;;;;;;;;;;5020988;28;20033;-80
2023/06/12 12:27:59;;;;;;;20.23;13.77;;;;;;;;;;5037036;28;20029;-82
2023/06/12 12:30:25;;;;;;;21.67;14.05;;;;;;;;;;5037206;28;20036;-82
2023/06/12 12:32:53;;;;;;;23.50;13.60;;;;;;;;;;5036892;28;20514;-82
2023/06/12 12:35:19;;;;;;;25.02;14.38;;;;;;;;;;5036866;28;20033;-82
2023/06/12 12:37:44;;;;;;;19.83;13.65;;;;;;;;;;5019908;28;20029;-81
2023/06/12 12:40:10;;;;;;;19.35;13.35;;;;;;;;;;5035536;28;20029;-83
2023/06/12 12:42:43;;;;;;;20.73;13.55;;;;;;;;;;5055025;28;20028;-80
2023/06/12 12:45:10;;;;;;;19.80;13.85;;;;;;;;;;5054434;28;20029;-82
2023/06/12 12:47:36;;;;;;;29.23;14.88;;;;;;;;;;5036517;28;20036;-82
2023/06/12 12:50:03;;;;;;;22.83;14.27;;;;;;;;;;5054411;28;20041;-81
2023/06/12 12:52:28;;;;;;;23.50;14.45;;;;;;;;;;5036552;28;20025;-82
2023/06/12 12:54:54;;;;;;;23.73;14.60;;;;;;;;;;5036955;28;20048;-82
2023/06/12 12:57:19;;;;;;;23.67;14.23;;;;;;;;;;5053810;28;20366;-81
2023/06/12 12:59:45;;;;;;;21.52;13.25;;;;;;;;;;5054302;28;20451;-82
2023/06/12 13:02:10;;;;;;;22.58;14.93;;;;;;;;;;5053767;28;20112;-82
2023/06/12 13:04:36;;;;;;;21.27;12.82;;;;;;;;;;5054019;28;20025;-82
2023/06/12 13:07:03;;;;;;;20.52;12.63;;;;;;;;;;5063732;28;20422;-81
2023/06/12 13:09:28;;;;;;;22.67;13.35;;;;;;;;;;5032757;28;20029;-82
2023/06/12 13:11:55;;;;;;;18.38;12.18;;;;;;;;;;5033592;28;20025;-81
2023/06/12 13:14:21;;;;;;;18.35;12.85;;;;;;;;;;5016325;28;20037;-81
2023/06/12 13:16:47;;;;;;;26.15;13.25;;;;;;;;;;5049382;28;20025;-81
2023/06/12 13:19:13;;;;;;;22.75;13.55;;;;;;;;;;5016470;28;20463;-81
2023/06/12 13:21:39;;;;;;;23.38;13.27;;;;;;;;;;5032610;28;20383;-82
2023/06/12 13:24:06;;;;;;;22.35;12.48;;;;;;;;;;5033834;28;20033;-82
2023/06/12 13:26:31;;;;;;;21.73;12.88;;;;;;;;;;5033830;28;20441;-82
2023/06/12 13:28:57;;;;;;;21.00;12.93;;;;;;;;;;5016137;28;20060;-80
2023/06/12 13:31:22;;;;;;;19.58;12.93;;;;;;;;;;5049194;28;20116;-81
2023/06/12 13:33:48;;;;;;;24.33;13.70;;;;;;;;;;5033793;28;20371;-81
2023/06/12 13:36:13;;;;;;;18.75;12.70;;;;;;;;;;5032440;28;20034;-81
2023/06/12 13:38:40;;;;;;;18.73;12.52;;;;;;;;;;5032498;28;20072;-82
2023/06/12 13:41:06;;;;;;;18.67;12.57;;;;;;;;;;5035531;28;20030;-82
2023/06/12 13:43:31;;;;;;;19.40;13.15;;;;;;;;;;4996422;28;20113;-83
2023/06/12 13:45:58;;;;;;;23.02;13.30;;;;;;;;;;4996533;28;20026;-82
2023/06/12 13:48:24;;;;;;;18.90;12.85;;;;;;;;;;4996436;28;20345;-82
2023/06/12 13:50:50;;;;;;;18.08;12.90;;;;;;;;;;5029131;28;20383;-82
2023/06/12 13:53:16;;;;;;;25.63;13.23;;;;;;;;;;5000292;28;20030;-82
2023/06/12 13:55:41;;;;;;;19.90;12.80;;;;;;;;;;5000083;28;20092;-82
2023/06/12 13:58:07;;;;;;;19.27;13.05;;;;;;;;;;5033174;28;20087;-83
2023/06/12 14:00:32;;;;;;;21.42;13.93;;;;;;;;;;5033133;28;20034;-82
2023/06/12 14:02:59;;;;;;;20.40;13.85;;;;;;;;;;5000498;28;20035;-82
2023/06/12 14:05:25;;;;;;;28.08;12.57;;;;;;;;;;5000544;28;20034;-82
2023/06/12 14:07:50;;;;;;;18.45;12.77;;;;;;;;;;5011936;28;20053;-82
2023/06/12 14:10:16;;;;;;;22.05;13.00;;;;;;;;;;5003461;28;20456;-82
2023/06/12 14:12:41;;;;;;;24.52;14.13;;;;;;;;;;5020022;28;20076;-83
2023/06/12 14:15:07;;;;;;;19.23;12.70;;;;;;;;;;5036216;28;20036;-83
2023/06/12 14:17:32;;;;;;;25.40;13.98;;;;;;;;;;5036328;28;20032;-82
2023/06/12 14:19:59;;;;;;;23.83;13.68;;;;;;;;;;5019539;28;20036;-82
2023/06/12 14:22:24;;;;;;;22.42;12.25;;;;;;;;;;5036018;28;20439;-83
2023/06/12 14:24:50;;;;;;;19.48;13.55;;;;;;;;;;5052350;28;20025;-82
2023/06/12 14:27:15;;;;;;;26.65;13.90;;;;;;;;;;5019559;28;20092;-81